createdAt,value
2022-11-04T18:22:55.544Z,1.67
2022-11-04T18:25:23.465Z,2.38
2022-11-04T18:27:56.705Z,2.65
2022-11-04T18:30:28.683Z,2.22
2022-11-04T18:33:00.644Z,3.00
2022-11-04T18:35:29.957Z,3.08
2022-11-04T18:38:00.651Z,2.40
2022-11-04T18:40:35.644Z,2.38
2022-11-04T18:43:09.305Z,2.80
2022-11-04T18:45:40.199Z,2.42
2022-11-04T18:48:14.965Z,2.80
2022-11-04T18:50:42.873Z,2.53
2022-11-04T18:53:13.386Z,2.97
2022-11-04T18:55:44.685Z,2.22
2022-11-04T18:58:12.868Z,2.53
2022-11-04T19:00:42.063Z,3.67
2022-11-04T19:03:11.785Z,2.60
2022-11-04T19:05:41.125Z,3.03
2022-11-04T19:08:09.506Z,2.92
2022-11-04T19:10:57.981Z,2.80
2022-11-04T19:13:27.633Z,2.67
2022-11-04T19:15:59.824Z,2.75
2022-11-04T19:18:28.846Z,4.00
2022-11-04T19:20:57.908Z,3.33
2022-11-04T19:23:31.387Z,3.17
2022-11-04T19:26:07.244Z,3.45
2022-11-04T19:28:47.703Z,3.42
2022-11-04T19:31:17.260Z,3.80
2022-11-04T19:33:48.752Z,4.30
2022-11-04T19:36:18.667Z,4.25
2022-11-04T19:38:46.988Z,3.72
2022-11-04T19:41:41.270Z,3.72
2022-11-04T19:44:14.002Z,4.25
2022-11-04T19:46:45.725Z,3.40
2022-11-04T19:49:15.277Z,3.33
2022-11-04T19:51:45.448Z,4.15
2022-11-04T19:54:24.651Z,4.07
2022-11-04T19:57:02.505Z,3.53
2022-11-04T19:59:34.515Z,4.15
2022-11-04T20:02:02.658Z,3.60
2022-11-04T20:04:40.244Z,3.95
2022-11-04T20:07:11.563Z,3.97
2022-11-04T20:09:42.044Z,5.97
2022-11-04T20:12:52.700Z,5.13
2022-11-04T20:15:26.083Z,3.58
2022-11-04T20:17:54.934Z,4.70
2022-11-04T20:20:24.919Z,3.88
2022-11-04T20:22:55.695Z,4.25
2022-11-04T20:25:30.954Z,4.25
2022-11-04T20:28:00.249Z,4.38
2022-11-04T20:30:30.097Z,5.03
2022-11-04T20:32:58.970Z,4.93
2022-11-04T20:35:27.199Z,5.68
2022-11-04T20:40:40.287Z,5.20
2022-11-04T20:43:08.963Z,4.88
2022-11-04T20:45:40.216Z,5.28
2022-11-04T20:48:14.114Z,4.97
2022-11-04T20:50:44.874Z,5.32
2022-11-04T20:53:13.461Z,8.13
2022-11-04T20:55:41.918Z,6.70
2022-11-04T20:58:24.458Z,5.63
2022-11-04T21:00:54.356Z,5.88
2022-11-04T21:03:24.851Z,5.88
2022-11-04T21:05:55.037Z,6.20
2022-11-04T21:08:23.224Z,5.18
2022-11-04T21:10:51.810Z,5.97
2022-11-04T21:13:26.223Z,5.32
2022-11-04T21:15:58.667Z,5.78
2022-11-04T21:18:28.719Z,4.95
2022-11-04T21:21:05.022Z,5.32
2022-11-04T21:23:35.228Z,4.85
2022-11-04T21:26:10.597Z,5.45
2022-11-04T21:28:41.048Z,6.45
2022-11-04T21:31:15.594Z,5.22
2022-11-04T21:33:43.486Z,4.93
2022-11-04T21:36:15.516Z,5.13
2022-11-04T21:38:45.549Z,4.63
2022-11-04T21:41:15.642Z,3.90
2022-11-04T21:43:44.890Z,4.60
2022-11-04T21:46:17.000Z,5.07
2022-11-04T21:48:47.260Z,4.10
2022-11-04T21:51:20.973Z,3.53
2022-11-04T21:53:49.177Z,3.78
2022-11-04T21:56:21.997Z,4.35
2022-11-04T21:58:55.638Z,4.45
2022-11-04T22:01:29.576Z,4.50
2022-11-04T22:04:00.141Z,4.22
2022-11-04T22:06:35.271Z,4.13
2022-11-04T22:09:12.743Z,4.07
2022-11-04T22:11:41.314Z,4.35
2022-11-04T22:14:15.003Z,4.35
2022-11-04T22:16:48.512Z,4.20
2022-11-04T22:19:16.387Z,4.00
2022-11-04T22:21:45.218Z,4.70
2022-11-04T22:24:16.078Z,3.55
2022-11-04T22:26:47.812Z,4.03
2022-11-04T22:29:40.958Z,4.22
2022-11-04T22:32:13.732Z,4.15
2022-11-04T22:34:45.768Z,3.90
2022-11-04T22:37:14.989Z,4.50
2022-11-04T22:39:43.436Z,3.65
2022-11-04T22:42:15.983Z,3.92
2022-11-04T22:44:50.842Z,3.80
2022-11-04T22:47:21.261Z,3.78
2022-11-04T22:49:49.161Z,3.80
2022-11-04T22:52:18.363Z,3.25
2022-11-04T22:54:52.105Z,3.90
2022-11-04T22:57:21.623Z,3.70
2022-11-04T22:59:53.490Z,3.33
2022-11-04T23:02:23.009Z,3.10
2022-11-04T23:04:52.008Z,2.53
2022-11-04T23:07:20.381Z,3.70
2022-11-04T23:10:06.947Z,2.90
2022-11-04T23:13:03.999Z,3.55
2022-11-04T23:15:49.542Z,3.13
2022-11-04T23:18:43.437Z,2.92
2022-11-04T23:21:31.859Z,2.25
2022-11-04T23:24:17.214Z,2.67
2022-11-04T23:26:47.040Z,2.28
2022-11-04T23:29:38.771Z,3.35
2022-11-04T23:32:32.626Z,2.50
2022-11-04T23:35:22.673Z,2.30
2022-11-04T23:37:58.450Z,2.25
2022-11-04T23:40:26.467Z,2.88
2022-11-04T23:42:55.346Z,2.20
2022-11-04T23:45:54.476Z,2.10
2022-11-04T23:48:43.251Z,2.38
2022-11-04T23:51:34.859Z,1.90
2022-11-04T23:54:24.471Z,2.33
2022-11-04T23:57:11.419Z,2.50
2022-11-04T23:59:58.193Z,2.30
